createdAt,value
2022-09-20T00:01:33.704Z,65.60
2022-09-20T00:04:05.599Z,65.50
2022-09-20T00:06:35.367Z,65.50
2022-09-20T00:09:05.121Z,65.60
2022-09-20T00:11:34.800Z,65.60
2022-09-20T00:14:06.164Z,65.70
2022-09-20T00:16:38.292Z,65.70
2022-09-20T00:19:07.056Z,65.60
2022-09-20T00:21:37.934Z,65.60
2022-09-20T00:24:06.386Z,65.60
2022-09-20T00:26:33.802Z,65.70
2022-09-20T00:29:01.876Z,65.70
2022-09-20T00:31:29.336Z,65.70
2022-09-20T00:34:16.838Z,65.70
2022-09-20T00:36:47.144Z,65.70
2022-09-20T00:39:16.613Z,65.70
2022-09-20T00:41:44.458Z,65.70
2022-09-20T00:45:18.743Z,65.70
2022-09-20T00:48:05.610Z,65.70
2022-09-20T00:50:38.303Z,65.70
2022-09-20T00:53:21.774Z,65.70
2022-09-20T00:56:02.707Z,65.70
2022-09-20T00:58:34.937Z,65.70
2022-09-20T01:01:02.746Z,65.70
2022-09-20T01:03:33.288Z,65.70
2022-09-20T01:06:06.725Z,65.70
2022-09-20T01:08:35.652Z,65.70
2022-09-20T01:11:03.486Z,65.70
2022-09-20T01:13:31.242Z,65.70
2022-09-20T01:16:01.373Z,65.60
2022-09-20T01:18:32.466Z,65.60
2022-09-20T01:21:01.384Z,65.60
2022-09-20T01:23:49.273Z,65.70
2022-09-20T01:26:29.395Z,65.70
2022-09-20T01:29:38.119Z,65.70
2022-09-20T01:32:14.712Z,65.70
2022-09-20T01:35:00.368Z,65.70
2022-09-20T01:37:36.820Z,65.70
2022-09-20T01:40:31.321Z,65.80
2022-09-20T01:43:18.711Z,65.70
2022-09-20T01:45:49.692Z,65.70
2022-09-20T01:48:38.595Z,65.70
2022-09-20T01:51:29.613Z,65.70
2022-09-20T01:54:14.592Z,65.70
2022-09-20T01:57:26.988Z,65.70
2022-09-20T02:00:23.459Z,65.80
2022-09-20T02:03:23.982Z,65.70
2022-09-20T02:06:31.605Z,65.70
2022-09-20T02:09:32.402Z,65.70
2022-09-20T02:12:14.397Z,65.70
2022-09-20T02:15:42.202Z,65.70
2022-09-20T02:18:48.089Z,65.70
2022-09-20T02:21:34.016Z,65.80
2022-09-20T02:24:29.462Z,65.70
2022-09-20T02:27:43.635Z,65.80
2022-09-20T02:31:01.838Z,65.80
2022-09-20T02:34:09.976Z,65.80
2022-09-20T02:37:31.684Z,65.80
2022-09-20T02:40:38.460Z,65.80
2022-09-20T02:43:30.011Z,65.80
2022-09-20T02:46:43.744Z,65.90
2022-09-20T02:49:47.687Z,65.80
2022-09-20T02:52:36.404Z,65.90
2022-09-20T02:55:21.450Z,65.80
2022-09-20T02:58:15.644Z,65.90
2022-09-20T03:01:25.942Z,65.90
2022-09-20T03:04:05.315Z,66.00
2022-09-20T03:07:10.862Z,65.90
2022-09-20T03:09:54.466Z,65.90
2022-09-20T03:12:49.660Z,66.00
2022-09-20T03:15:58.366Z,66.00
2022-09-20T03:19:12.282Z,66.00
2022-09-20T03:22:01.045Z,66.10
2022-09-20T03:25:17.710Z,66.10
2022-09-20T03:28:35.311Z,66.20
2022-09-20T03:31:27.553Z,66.00
2022-09-20T03:34:30.265Z,66.00
2022-09-20T03:37:16.845Z,66.20
2022-09-20T03:40:21.106Z,66.20
2022-09-20T03:42:54.670Z,66.10
2022-09-20T03:45:44.546Z,66.10
2022-09-20T03:48:31.544Z,66.10
2022-09-20T03:51:33.866Z,66.20
2022-09-20T03:55:02.691Z,66.20
2022-09-20T03:57:39.403Z,66.20
2022-09-20T04:01:04.875Z,66.20
2022-09-20T04:04:12.376Z,66.20
2022-09-20T04:07:30.027Z,66.20
2022-09-20T04:10:38.458Z,66.20
2022-09-20T04:13:37.608Z,66.20
2022-09-20T04:16:23.748Z,66.30
2022-09-20T04:18:59.907Z,66.40
2022-09-20T04:21:54.992Z,66.40
2022-09-20T04:24:48.898Z,66.30
2022-09-20T04:27:35.046Z,66.40
2022-09-20T04:30:29.963Z,66.40
2022-09-20T04:33:04.594Z,66.40
2022-09-20T04:36:30.514Z,66.40
2022-09-20T04:39:32.764Z,66.30
2022-09-20T04:42:48.702Z,66.40
2022-09-20T04:45:52.783Z,66.40
2022-09-20T04:48:29.181Z,66.50
2022-09-20T04:51:26.620Z,66.50
2022-09-20T04:54:47.603Z,66.50
2022-09-20T04:57:55.320Z,66.60
2022-09-20T05:00:24.905Z,66.70
2022-09-20T05:03:49.293Z,66.70
2022-09-20T05:07:10.665Z,66.80
2022-09-20T05:10:15.610Z,66.90
2022-09-20T05:12:52.375Z,66.90
2022-09-20T05:15:55.882Z,66.90
2022-09-20T05:18:48.408Z,67.00
2022-09-20T05:21:27.101Z,67.00
2022-09-20T05:24:38.506Z,67.70
2022-09-20T05:27:50.817Z,67.10
2022-09-20T05:30:50.223Z,67.00
2022-09-20T05:33:28.411Z,67.10
2022-09-20T05:36:25.844Z,67.00
2022-09-20T05:39:20.517Z,67.00
2022-09-20T05:42:28.792Z,67.00
2022-09-20T05:45:21.626Z,67.00
2022-09-20T05:48:13.076Z,67.00
2022-09-20T05:50:55.733Z,67.40
2022-09-20T05:53:36.509Z,67.80
2022-09-20T05:56:24.630Z,68.00
2022-09-20T05:59:14.940Z,68.10
2022-09-20T06:02:04.059Z,68.30
2022-09-20T06:04:46.019Z,68.30
2022-09-20T06:07:55.367Z,68.50
2022-09-20T06:10:41.986Z,68.60
2022-09-20T06:13:31.573Z,69.30
2022-09-20T06:16:06.492Z,68.60
2022-09-20T06:18:44.629Z,68.70
2022-09-20T06:21:25.936Z,68.90
2022-09-20T06:24:01.015Z,68.80
2022-09-20T06:26:37.033Z,68.70
2022-09-20T06:29:11.838Z,68.80
2022-09-20T06:31:39.326Z,68.90
2022-09-20T06:34:11.089Z,68.90
2022-09-20T06:37:04.198Z,68.90
2022-09-20T06:40:22.207Z,68.90
2022-09-20T06:42:49.725Z,69.00
2022-09-20T06:45:17.489Z,68.90
2022-09-20T06:47:44.963Z,69.10
2022-09-20T06:50:19.726Z,69.10
2022-09-20T06:52:47.687Z,69.20
2022-09-20T06:55:31.214Z,69.20
2022-09-20T06:57:58.870Z,69.10
2022-09-20T07:00:26.541Z,69.30
2022-09-20T07:02:55.525Z,69.20
2022-09-20T07:05:26.822Z,69.20
2022-09-20T07:07:59.256Z,69.30
2022-09-20T07:10:31.055Z,69.10
2022-09-20T07:13:00.598Z,69.20
2022-09-20T07:15:35.080Z,69.90
2022-09-20T07:18:02.336Z,69.30
2022-09-20T07:20:29.655Z,69.20
2022-09-20T07:22:57.179Z,69.30
2022-09-20T07:25:24.670Z,69.30
2022-09-20T07:27:52.703Z,69.30
2022-09-20T07:30:21.485Z,69.40
2022-09-20T07:32:49.215Z,69.30
2022-09-20T07:35:17.112Z,69.40
2022-09-20T07:37:44.584Z,69.40
2022-09-20T07:40:12.708Z,69.40
2022-09-20T07:42:40.371Z,69.30
2022-09-20T07:45:08.640Z,69.40
2022-09-20T07:47:36.173Z,69.30
2022-09-20T07:50:05.163Z,69.30
2022-09-20T07:52:32.620Z,69.40
2022-09-20T07:55:00.034Z,69.40
2022-09-20T07:57:27.484Z,69.40
2022-09-20T07:59:54.909Z,69.40
2022-09-20T08:02:22.296Z,69.40
2022-09-20T08:04:50.154Z,69.40
2022-09-20T08:07:17.687Z,69.50
2022-09-20T08:09:45.135Z,69.50
2022-09-20T08:15:02.000Z,69.60
2022-09-20T08:17:29.407Z,69.60
2022-09-20T08:19:56.802Z,69.60
2022-09-20T08:22:24.704Z,69.60
2022-09-20T08:24:52.244Z,69.60
2022-09-20T08:27:20.071Z,69.60
2022-09-20T08:29:47.659Z,69.60
2022-09-20T08:32:15.242Z,69.60
2022-09-20T08:34:42.553Z,69.70
2022-09-20T08:37:09.949Z,69.70
2022-09-20T08:42:36.677Z,69.80
2022-09-20T08:45:23.258Z,69.80
2022-09-20T08:48:07.731Z,69.90
2022-09-20T08:50:36.991Z,69.80
2022-09-20T08:53:05.200Z,69.80
2022-09-20T08:55:37.078Z,69.80
2022-09-20T08:58:08.866Z,69.80
2022-09-20T09:00:39.118Z,69.80
2022-09-20T09:03:18.279Z,69.80
2022-09-20T09:05:58.368Z,69.80
2022-09-20T09:08:37.651Z,69.80
2022-09-20T09:11:18.194Z,69.80
2022-09-20T09:14:31.473Z,69.80
2022-09-20T09:17:01.279Z,69.80
2022-09-20T09:20:00.229Z,69.80
2022-09-20T09:22:42.080Z,69.80
2022-09-20T09:25:19.372Z,69.70
2022-09-20T09:28:09.953Z,69.50
2022-09-20T09:30:41.141Z,69.40
2022-09-20T09:33:32.391Z,69.40
2022-09-20T09:36:15.205Z,69.40
2022-09-20T09:38:46.230Z,69.50
2022-09-20T09:41:31.849Z,69.40
2022-09-20T09:44:09.835Z,69.40
2022-09-20T09:46:40.368Z,69.30
2022-09-20T09:49:23.708Z,69.20
2022-09-20T09:52:14.630Z,69.10
2022-09-20T09:54:55.331Z,69.10
2022-09-20T09:58:02.038Z,69.00
2022-09-20T10:00:33.355Z,69.00
2022-09-20T10:03:29.671Z,68.90
2022-09-20T10:06:13.518Z,68.90
2022-09-20T10:09:18.121Z,69.00
2022-09-20T10:12:00.444Z,68.90
2022-09-20T10:14:44.456Z,69.40
2022-09-20T10:17:31.499Z,69.50
2022-09-20T10:20:31.546Z,69.50
2022-09-20T10:23:51.372Z,69.30
2022-09-20T10:26:58.089Z,69.80
2022-09-20T10:29:40.477Z,70.00
2022-09-20T10:32:22.321Z,70.00
2022-09-20T10:35:43.579Z,70.10
2022-09-20T10:38:26.442Z,70.10
2022-09-20T10:41:12.000Z,69.70
2022-09-20T10:44:09.396Z,69.60
2022-09-20T10:47:09.472Z,69.50
2022-09-20T10:50:05.193Z,69.50
2022-09-20T10:53:13.334Z,69.40
2022-09-20T10:56:20.679Z,69.40
2022-09-20T10:59:33.924Z,69.60
2022-09-20T11:02:37.569Z,69.50
2022-09-20T11:05:31.491Z,69.60
2022-09-20T11:08:38.390Z,69.70
2022-09-20T11:12:10.622Z,69.30
2022-09-20T11:15:25.452Z,69.10
2022-09-20T11:18:32.929Z,69.00
2022-09-20T11:21:28.424Z,69.10
2022-09-20T11:24:24.435Z,69.00
2022-09-20T11:27:10.526Z,69.50
2022-09-20T11:29:47.014Z,69.60
2022-09-20T11:32:24.933Z,69.50
2022-09-20T11:35:07.298Z,69.50
2022-09-20T11:37:55.382Z,69.60
2022-09-20T11:40:38.053Z,69.60
2022-09-20T11:43:08.361Z,69.50
2022-09-20T11:45:39.800Z,69.60
2022-09-20T11:48:32.602Z,69.80
2022-09-20T11:52:01.350Z,69.90
2022-09-20T11:54:44.704Z,70.00
2022-09-20T11:57:16.912Z,70.00
2022-09-20T11:59:59.002Z,70.00
2022-09-20T12:02:55.739Z,70.00
2022-09-20T12:05:42.537Z,70.00
2022-09-20T12:08:27.103Z,69.90
2022-09-20T12:11:06.549Z,70.00
2022-09-20T12:13:41.274Z,70.00
2022-09-20T12:16:17.804Z,69.90
2022-09-20T12:19:03.287Z,69.90
2022-09-20T12:21:30.722Z,69.80
2022-09-20T12:23:58.009Z,69.90
2022-09-20T12:26:28.330Z,69.80
2022-09-20T12:28:59.587Z,69.80
2022-09-20T12:31:32.028Z,69.80
2022-09-20T12:34:12.099Z,69.80
2022-09-20T12:36:54.584Z,69.70
2022-09-20T12:39:33.777Z,69.80
2022-09-20T12:42:10.547Z,69.70
2022-09-20T12:44:49.897Z,69.70
2022-09-20T12:47:28.239Z,69.60
2022-09-20T12:50:19.921Z,69.50
2022-09-20T12:52:51.333Z,69.50
2022-09-20T12:55:28.151Z,69.50
2022-09-20T12:58:14.603Z,69.50
2022-09-20T13:00:59.599Z,69.50
2022-09-20T13:03:43.692Z,69.50
2022-09-20T13:06:19.691Z,69.40
2022-09-20T13:09:01.748Z,69.40
2022-09-20T13:11:51.373Z,69.30
2022-09-20T13:14:27.043Z,69.30
2022-09-20T13:17:27.422Z,69.30
2022-09-20T13:19:56.513Z,69.30
2022-09-20T13:22:29.291Z,69.30
2022-09-20T13:25:01.678Z,69.30
2022-09-20T13:27:42.207Z,69.40
2022-09-20T13:30:20.175Z,69.30
2022-09-20T13:32:49.255Z,69.30
2022-09-20T13:35:19.749Z,69.20
2022-09-20T13:37:59.521Z,69.20
2022-09-20T13:40:47.649Z,69.20
2022-09-20T13:43:37.803Z,69.20
2022-09-20T13:46:18.204Z,69.20
2022-09-20T13:48:54.533Z,69.10
2022-09-20T13:51:29.266Z,69.20
2022-09-20T13:54:33.101Z,69.20
2022-09-20T13:57:07.093Z,69.10
2022-09-20T13:59:43.019Z,69.10
2022-09-20T14:02:31.778Z,69.10
2022-09-20T14:05:03.505Z,69.10
2022-09-20T14:07:31.819Z,68.90
2022-09-20T14:10:00.355Z,69.00
2022-09-20T14:12:29.496Z,69.00
2022-09-20T14:14:57.886Z,68.90
2022-09-20T14:17:37.131Z,68.90
2022-09-20T14:20:06.429Z,68.80
2022-09-20T14:22:35.508Z,68.70
2022-09-20T14:25:13.436Z,68.80
2022-09-20T14:27:41.509Z,68.80
2022-09-20T14:30:33.566Z,68.70
2022-09-20T14:33:06.171Z,68.80
2022-09-20T14:35:35.664Z,68.70
2022-09-20T14:38:33.921Z,68.70
2022-09-20T14:41:07.371Z,68.60
2022-09-20T14:43:46.123Z,68.70
2022-09-20T14:46:36.649Z,68.50
2022-09-20T14:49:33.427Z,68.60
2022-09-20T14:52:40.278Z,69.10
2022-09-20T14:55:13.232Z,68.60
2022-09-20T14:57:42.459Z,68.50
2022-09-20T15:00:15.435Z,68.60
2022-09-20T15:02:45.193Z,68.50
2022-09-20T15:05:30.588Z,68.40
2022-09-20T15:07:59.823Z,68.50
2022-09-20T15:10:27.621Z,68.40
2022-09-20T15:12:54.967Z,68.40
2022-09-20T15:15:22.228Z,68.40
2022-09-20T15:17:50.906Z,68.30
2022-09-20T15:20:24.238Z,68.20
2022-09-20T15:22:52.705Z,68.20
2022-09-20T15:25:22.535Z,68.00
2022-09-20T15:27:53.322Z,68.00
2022-09-20T15:30:21.202Z,68.00
2022-09-20T15:32:48.818Z,68.00
2022-09-20T15:35:16.523Z,68.00
2022-09-20T15:37:45.578Z,68.00
2022-09-20T15:40:13.488Z,68.00
2022-09-20T15:42:41.814Z,68.60
2022-09-20T15:45:11.582Z,68.10
2022-09-20T15:47:39.884Z,68.00
2022-09-20T15:50:09.886Z,68.00
2022-09-20T15:52:42.474Z,68.10
2022-09-20T15:55:10.243Z,68.10
2022-09-20T15:57:38.584Z,68.20
2022-09-20T16:00:06.845Z,68.20
2022-09-20T16:02:36.044Z,68.20
2022-09-20T16:05:04.707Z,68.20
2022-09-20T16:07:32.143Z,68.30
2022-09-20T16:09:59.573Z,68.30
2022-09-20T16:12:26.980Z,68.20
2022-09-20T16:14:54.395Z,68.30
2022-09-20T16:17:44.338Z,68.20
2022-09-20T16:20:11.779Z,68.20
2022-09-20T16:22:39.291Z,68.30
2022-09-20T16:25:08.801Z,68.30
2022-09-20T16:27:36.108Z,68.50
2022-09-20T16:30:04.385Z,68.50
2022-09-20T16:32:31.853Z,68.50
2022-09-20T16:35:01.339Z,68.40
2022-09-20T16:37:32.971Z,68.40
2022-09-20T16:40:00.825Z,68.50
2022-09-20T16:42:29.652Z,68.50
2022-09-20T16:44:57.326Z,68.40
2022-09-20T16:47:25.353Z,68.40
2022-09-20T16:49:54.436Z,68.30
2022-09-20T16:52:21.814Z,68.10
2022-09-20T16:54:49.245Z,68.20
2022-09-20T16:57:16.801Z,68.30
2022-09-20T16:59:46.385Z,68.30
2022-09-20T17:02:14.402Z,68.30
2022-09-20T17:04:43.814Z,68.40
2022-09-20T17:07:11.444Z,68.50
2022-09-20T17:09:38.870Z,68.20
2022-09-20T17:12:06.864Z,68.30
2022-09-20T17:14:34.298Z,68.30
2022-09-20T17:17:01.728Z,68.30
2022-09-20T17:19:29.436Z,68.40
2022-09-20T17:21:57.435Z,68.50
2022-09-20T17:24:25.412Z,68.50
2022-09-20T17:26:53.799Z,68.30
2022-09-20T17:29:21.865Z,68.20
2022-09-20T17:31:59.012Z,68.10
2022-09-20T17:34:28.230Z,68.30
2022-09-20T17:36:55.853Z,68.20
2022-09-20T17:39:24.192Z,68.40
2022-09-20T17:41:51.832Z,68.50
2022-09-20T17:44:19.470Z,68.50
2022-09-20T17:46:50.186Z,69.20
2022-09-20T17:49:20.958Z,68.70
2022-09-20T17:51:51.650Z,68.80
2022-09-20T17:54:20.460Z,68.50
2022-09-20T17:56:50.752Z,68.60
2022-09-20T17:59:20.112Z,69.30
2022-09-20T18:01:51.279Z,68.50
2022-09-20T18:04:21.151Z,68.40
2022-09-20T18:06:51.888Z,68.50
2022-09-20T18:09:22.547Z,68.60
2022-09-20T18:11:53.121Z,68.70
2022-09-20T18:14:30.252Z,68.70
2022-09-20T18:17:01.666Z,68.60
2022-09-20T18:19:33.905Z,68.80
2022-09-20T18:22:04.739Z,68.90
2022-09-20T18:24:32.506Z,68.80
2022-09-20T18:27:01.100Z,68.90
2022-09-20T18:29:29.528Z,69.00
2022-09-20T18:31:58.076Z,69.40
2022-09-20T18:34:31.304Z,69.10
2022-09-20T18:37:01.451Z,69.30
2022-09-20T18:39:33.919Z,69.20
2022-09-20T18:42:04.568Z,69.30
2022-09-20T18:44:34.479Z,69.50
2022-09-20T18:47:04.093Z,69.60
2022-09-20T18:49:32.480Z,69.70
2022-09-20T18:52:00.220Z,69.80
2022-09-20T18:54:33.735Z,69.90
2022-09-20T18:57:02.098Z,70.70
2022-09-20T18:59:30.121Z,70.10
2022-09-20T19:02:32.174Z,70.20
2022-09-20T19:05:12.207Z,70.30
2022-09-20T19:07:53.547Z,70.40
2022-09-20T19:10:42.299Z,70.60
2022-09-20T19:13:38.634Z,70.60
2022-09-20T19:16:36.600Z,70.60
2022-09-20T19:19:42.137Z,70.80
2022-09-20T19:22:33.694Z,70.70
2022-09-20T19:25:46.905Z,70.50
2022-09-20T19:28:17.668Z,70.60
2022-09-20T19:30:48.795Z,70.60
2022-09-20T19:33:21.127Z,70.60
2022-09-20T19:35:51.929Z,70.60
2022-09-20T19:39:12.218Z,70.60
2022-09-20T19:41:59.821Z,70.60
2022-09-20T19:45:22.830Z,70.70
2022-09-20T19:48:26.154Z,70.60
2022-09-20T19:50:58.969Z,70.60
2022-09-20T19:53:31.469Z,70.50
2022-09-20T19:56:19.453Z,70.40
2022-09-20T19:58:53.676Z,70.50
2022-09-20T20:01:27.287Z,70.60
2022-09-20T20:03:56.623Z,70.50
2022-09-20T20:07:09.602Z,70.50
2022-09-20T20:10:04.779Z,70.60
2022-09-20T20:13:01.103Z,70.60
2022-09-20T20:15:46.054Z,70.60
2022-09-20T20:18:19.224Z,70.60
2022-09-20T20:20:50.631Z,70.60
2022-09-20T20:23:51.604Z,70.60
2022-09-20T20:26:27.101Z,70.60
2022-09-20T20:28:54.789Z,70.60
2022-09-20T20:31:23.078Z,70.60
2022-09-20T20:33:50.818Z,70.60
2022-09-20T20:36:18.409Z,70.60
2022-09-20T20:38:49.992Z,70.60
2022-09-20T20:41:22.046Z,70.60
2022-09-20T20:43:56.252Z,70.60
2022-09-20T20:46:25.527Z,70.70
2022-09-20T20:48:53.142Z,70.70
2022-09-20T20:51:22.923Z,70.70
2022-09-20T20:53:53.268Z,70.70
2022-09-20T20:56:27.722Z,70.90
2022-09-20T20:59:01.041Z,70.90
2022-09-20T21:01:32.135Z,70.90
2022-09-20T21:04:01.127Z,70.90
2022-09-20T21:06:32.186Z,70.80
2022-09-20T21:09:00.609Z,70.70
2022-09-20T21:11:34.392Z,70.70
2022-09-20T21:14:05.146Z,70.80
2022-09-20T21:16:36.642Z,70.80
2022-09-20T21:19:06.265Z,70.90
2022-09-20T21:21:39.686Z,70.90
2022-09-20T21:24:10.351Z,70.90
2022-09-20T21:26:39.930Z,71.00
2022-09-20T21:29:12.545Z,70.80
2022-09-20T21:31:45.066Z,70.70
2022-09-20T21:34:15.609Z,70.70
2022-09-20T21:36:44.871Z,70.70
2022-09-20T21:39:12.714Z,70.60
2022-09-20T21:41:40.981Z,70.50
2022-09-20T21:44:12.428Z,70.50
2022-09-20T21:46:42.496Z,70.50
2022-09-20T21:49:12.287Z,70.40
2022-09-20T21:51:45.350Z,70.40
2022-09-20T21:54:12.791Z,70.30
2022-09-20T21:56:41.487Z,70.40
2022-09-20T21:59:09.605Z,70.90
2022-09-20T22:01:40.590Z,70.30
2022-09-20T22:04:11.205Z,70.30
2022-09-20T22:06:42.458Z,70.20
2022-09-20T22:09:13.281Z,70.20
2022-09-20T22:11:47.280Z,70.10
2022-09-20T22:14:18.319Z,70.10
2022-09-20T22:16:47.259Z,70.10
2022-09-20T22:19:17.337Z,70.10
2022-09-20T22:21:51.060Z,70.30
2022-09-20T22:24:18.931Z,70.40
2022-09-20T22:26:49.343Z,70.40
2022-09-20T22:29:18.457Z,70.40
2022-09-20T22:31:48.051Z,70.30
2022-09-20T22:34:21.906Z,70.40
2022-09-20T22:36:49.928Z,70.40
2022-09-20T22:39:17.969Z,70.40
2022-09-20T22:41:48.193Z,70.50
2022-09-20T22:44:15.906Z,70.40
2022-09-20T22:46:43.757Z,70.40
2022-09-20T22:49:11.541Z,70.40
2022-09-20T22:51:39.344Z,70.40
2022-09-20T22:54:10.660Z,70.40
2022-09-20T22:56:41.458Z,70.50
2022-09-20T22:59:12.538Z,70.50
2022-09-20T23:01:43.218Z,70.40
2022-09-20T23:04:17.064Z,70.80
2022-09-20T23:06:55.291Z,70.30
2022-09-20T23:09:28.408Z,70.40
2022-09-20T23:11:56.718Z,70.40
2022-09-20T23:14:24.156Z,70.30
2022-09-20T23:16:51.781Z,70.30
2022-09-20T23:19:19.583Z,70.30
2022-09-20T23:21:47.211Z,70.30
2022-09-20T23:24:16.775Z,70.40
2022-09-20T23:26:45.002Z,70.20
2022-09-20T23:29:16.768Z,70.20
2022-09-20T23:31:47.325Z,70.10
2022-09-20T23:34:16.484Z,70.30
2022-09-20T23:36:45.474Z,70.00
2022-09-20T23:39:13.851Z,70.10
2022-09-20T23:41:42.655Z,70.00
2022-09-20T23:44:11.729Z,69.80
2022-09-20T23:46:39.562Z,69.90
2022-09-20T23:49:09.444Z,69.80
2022-09-20T23:51:37.816Z,69.80
2022-09-20T23:54:06.124Z,69.80
2022-09-20T23:56:33.751Z,69.70
2022-09-20T23:59:01.245Z,69.60
